STI weather

Cibao International Airport
Santiago, Santiago de los Caballeros Province, Dominican Republic

Public forecast

Using degrees Celsius for public forecast. Weather courtesy of forecast.io.

Current aviation weather report (METAR) for Cibao International Airport

Retrieved 2020/06/04 00:00 UTC (1 hour ago):

MDST 040000Z 10016KT 9999 SCT020 28/24 Q1014

Aviation forecast (TAF) for Cibao International Airport

Forecast is more than 6 hours old.

Retrieved 2020/06/03 18:23 UTC (7 hours ago):

TAF MDPP 031600Z 0318/0418 00000KT 9999 FEW018 SCT300 TAF MDST 031600Z 0318/0418 11015KT 9999 SCT025 SCT300 PROB30 0320/0402 7000 -TSRA FEW018CB BKN018